sensor_id;sensor_type;location;lat;lon;timestamp;P1;durP1;ratioP1;P2;durP2;ratioP2
7211;SDS011;3647;48.792;9.802;2023-07-08T06:42:37;6.53;;;4.25;;
7211;SDS011;3647;48.792;9.802;2023-07-08T06:45:04;5.50;;;4.03;;
7211;SDS011;3647;48.792;9.802;2023-07-08T06:47:32;6.38;;;3.97;;
7211;SDS011;3647;48.792;9.802;2023-07-08T06:49:59;6.60;;;4.18;;
7211;SDS011;3647;48.792;9.802;2023-07-08T06:52:25;4.72;;;3.80;;
7211;SDS011;3647;48.792;9.802;2023-07-08T06:54:52;7.45;;;4.05;;
7211;SDS011;3647;48.792;9.802;2023-07-08T06:57:19;6.15;;;3.85;;
7211;SDS011;3647;48.792;9.802;2023-07-08T06:59:48;6.03;;;3.80;;
7211;SDS011;3647;48.792;9.802;2023-07-08T07:02:14;7.35;;;4.07;;
7211;SDS011;3647;48.792;9.802;2023-07-08T07:04:42;7.20;;;3.92;;
7211;SDS011;3647;48.792;9.802;2023-07-08T07:07:09;5.10;;;3.67;;
7211;SDS011;3647;48.792;9.802;2023-07-08T07:09:36;6.47;;;4.28;;
7211;SDS011;3647;48.792;9.802;2023-07-08T07:12:03;6.05;;;4.15;;
7211;SDS011;3647;48.792;9.802;2023-07-08T07:14:31;5.75;;;3.65;;
7211;SDS011;3647;48.792;9.802;2023-07-08T07:16:59;5.70;;;3.97;;
7211;SDS011;3647;48.792;9.802;2023-07-08T07:19:26;8.65;;;3.97;;
7211;SDS011;3647;48.792;9.802;2023-07-08T07:21:53;5.97;;;3.85;;
7211;SDS011;3647;48.792;9.802;2023-07-08T07:24:20;7.03;;;5.28;;
7211;SDS011;3647;48.792;9.802;2023-07-08T07:26:46;4.70;;;3.70;;
7211;SDS011;3647;48.792;9.802;2023-07-08T07:29:15;5.85;;;3.65;;
7211;SDS011;3647;48.792;9.802;2023-07-08T07:31:43;6.50;;;3.55;;
7211;SDS011;3647;48.792;9.802;2023-07-08T07:34:11;6.30;;;3.60;;
7211;SDS011;3647;48.792;9.802;2023-07-08T07:36:39;5.57;;;3.67;;
7211;SDS011;3647;48.792;9.802;2023-07-08T07:39:06;4.75;;;3.45;;
7211;SDS011;3647;48.792;9.802;2023-07-08T07:41:33;5.75;;;3.53;;
7211;SDS011;3647;48.792;9.802;2023-07-08T07:44:00;4.55;;;3.33;;
7211;SDS011;3647;48.792;9.802;2023-07-08T07:46:26;4.68;;;3.63;;
7211;SDS011;3647;48.792;9.802;2023-07-08T07:48:53;5.95;;;3.08;;
7211;SDS011;3647;48.792;9.802;2023-07-08T07:51:21;4.85;;;3.30;;
7211;SDS011;3647;48.792;9.802;2023-07-08T07:53:48;7.40;;;3.30;;
7211;SDS011;3647;48.792;9.802;2023-07-08T07:56:15;5.45;;;3.63;;
7211;SDS011;3647;48.792;9.802;2023-07-08T07:58:41;6.93;;;3.70;;
7211;SDS011;3647;48.792;9.802;2023-07-08T08:01:08;5.25;;;3.38;;
7211;SDS011;3647;48.792;9.802;2023-07-08T08:03:35;5.95;;;3.67;;
7211;SDS011;3647;48.792;9.802;2023-07-08T08:06:02;5.47;;;2.85;;
7211;SDS011;3647;48.792;9.802;2023-07-08T08:08:30;3.63;;;2.78;;
7211;SDS011;3647;48.792;9.802;2023-07-08T08:10:57;4.82;;;3.28;;
7211;SDS011;3647;48.792;9.802;2023-07-08T08:13:23;3.97;;;2.95;;
7211;SDS011;3647;48.792;9.802;2023-07-08T08:15:55;5.20;;;2.83;;
7211;SDS011;3647;48.792;9.802;2023-07-08T08:18:22;5.82;;;3.60;;
7211;SDS011;3647;48.792;9.802;2023-07-08T08:20:49;4.35;;;3.35;;
7211;SDS011;3647;48.792;9.802;2023-07-08T08:23:16;5.10;;;3.08;;
7211;SDS011;3647;48.792;9.802;2023-07-08T08:25:45;5.53;;;3.20;;
7211;SDS011;3647;48.792;9.802;2023-07-08T08:28:11;5.38;;;3.88;;
7211;SDS011;3647;48.792;9.802;2023-07-08T08:30:38;5.30;;;3.13;;
7211;SDS011;3647;48.792;9.802;2023-07-08T08:33:05;4.57;;;3.53;;
7211;SDS011;3647;48.792;9.802;2023-07-08T08:35:32;4.25;;;3.15;;
7211;SDS011;3647;48.792;9.802;2023-07-08T08:37:58;7.93;;;4.75;;
7211;SDS011;3647;48.792;9.802;2023-07-08T08:40:28;6.72;;;3.60;;
7211;SDS011;3647;48.792;9.802;2023-07-08T08:42:59;5.18;;;3.15;;
7211;SDS011;3647;48.792;9.802;2023-07-08T08:45:28;5.20;;;3.20;;
7211;SDS011;3647;48.792;9.802;2023-07-08T08:48:02;5.68;;;3.42;;
7211;SDS011;3647;48.792;9.802;2023-07-08T08:50:31;4.75;;;3.58;;
7211;SDS011;3647;48.792;9.802;2023-07-08T08:53:02;5.90;;;3.28;;
7211;SDS011;3647;48.792;9.802;2023-07-08T08:55:31;4.50;;;3.35;;
7211;SDS011;3647;48.792;9.802;2023-07-08T08:58:02;6.10;;;3.45;;
7211;SDS011;3647;48.792;9.802;2023-07-08T09:00:49;3.92;;;2.97;;
7211;SDS011;3647;48.792;9.802;2023-07-08T09:03:21;5.60;;;3.15;;
7211;SDS011;3647;48.792;9.802;2023-07-08T09:05:58;5.18;;;3.20;;
7211;SDS011;3647;48.792;9.802;2023-07-08T09:08:28;4.43;;;3.03;;
7211;SDS011;3647;48.792;9.802;2023-07-08T09:11:00;5.25;;;3.35;;
7211;SDS011;3647;48.792;9.802;2023-07-08T09:13:35;6.25;;;3.58;;
7211;SDS011;3647;48.792;9.802;2023-07-08T09:16:05;4.53;;;2.97;;
7211;SDS011;3647;48.792;9.802;2023-07-08T09:18:36;5.20;;;3.35;;
7211;SDS011;3647;48.792;9.802;2023-07-08T09:21:13;3.75;;;3.03;;
7211;SDS011;3647;48.792;9.802;2023-07-08T09:23:47;5.32;;;3.22;;
7211;SDS011;3647;48.792;9.802;2023-07-08T09:26:17;5.28;;;3.40;;
7211;SDS011;3647;48.792;9.802;2023-07-08T09:28:48;5.55;;;3.70;;
7211;SDS011;3647;48.792;9.802;2023-07-08T09:31:21;4.22;;;3.08;;
7211;SDS011;3647;48.792;9.802;2023-07-08T09:33:50;5.68;;;3.78;;
7211;SDS011;3647;48.792;9.802;2023-07-08T09:36:18;5.22;;;3.20;;
7211;SDS011;3647;48.792;9.802;2023-07-08T09:38:48;5.07;;;2.83;;
7211;SDS011;3647;48.792;9.802;2023-07-08T09:41:22;4.53;;;3.15;;
7211;SDS011;3647;48.792;9.802;2023-07-08T09:44:16;7.60;;;3.05;;
7211;SDS011;3647;48.792;9.802;2023-07-08T09:46:48;6.63;;;3.63;;
7211;SDS011;3647;48.792;9.802;2023-07-08T09:49:16;4.88;;;3.20;;
7211;SDS011;3647;48.792;9.802;2023-07-08T09:51:45;8.25;;;3.63;;
7211;SDS011;3647;48.792;9.802;2023-07-08T09:54:15;4.32;;;3.20;;
7211;SDS011;3647;48.792;9.802;2023-07-08T09:56:43;3.30;;;2.80;;
7211;SDS011;3647;48.792;9.802;2023-07-08T09:59:17;3.60;;;2.83;;
7211;SDS011;3647;48.792;9.802;2023-07-08T10:01:46;4.63;;;2.85;;
7211;SDS011;3647;48.792;9.802;2023-07-08T10:04:13;3.83;;;2.95;;
7211;SDS011;3647;48.792;9.802;2023-07-08T10:06:40;4.40;;;3.13;;
7211;SDS011;3647;48.792;9.802;2023-07-08T10:09:12;5.97;;;3.63;;
7211;SDS011;3647;48.792;9.802;2023-07-08T10:11:44;6.50;;;3.17;;
7211;SDS011;3647;48.792;9.802;2023-07-08T10:14:18;5.35;;;3.10;;
7211;SDS011;3647;48.792;9.802;2023-07-08T10:16:50;4.57;;;2.90;;
7211;SDS011;3647;48.792;9.802;2023-07-08T10:19:17;3.72;;;2.90;;
7211;SDS011;3647;48.792;9.802;2023-07-08T10:21:48;5.63;;;3.05;;
7211;SDS011;3647;48.792;9.802;2023-07-08T10:24:24;3.85;;;2.88;;
7211;SDS011;3647;48.792;9.802;2023-07-08T10:27:06;5.57;;;3.33;;
7211;SDS011;3647;48.792;9.802;2023-07-08T10:29:44;3.58;;;2.70;;
7211;SDS011;3647;48.792;9.802;2023-07-08T10:32:35;4.18;;;3.20;;
7211;SDS011;3647;48.792;9.802;2023-07-08T10:35:09;4.00;;;2.72;;
7211;SDS011;3647;48.792;9.802;2023-07-08T10:37:42;3.60;;;2.50;;
7211;SDS011;3647;48.792;9.802;2023-07-08T10:40:26;5.63;;;2.65;;
7211;SDS011;3647;48.792;9.802;2023-07-08T10:43:23;4.05;;;2.33;;
7211;SDS011;3647;48.792;9.802;2023-07-08T10:46:10;4.25;;;2.65;;
7211;SDS011;3647;48.792;9.802;2023-07-08T10:48:53;5.63;;;2.80;;
7211;SDS011;3647;48.792;9.802;2023-07-08T10:51:30;4.05;;;2.85;;
7211;SDS011;3647;48.792;9.802;2023-07-08T10:54:08;4.05;;;2.55;;
7211;SDS011;3647;48.792;9.802;2023-07-08T10:56:54;3.97;;;2.40;;
7211;SDS011;3647;48.792;9.802;2023-07-08T10:59:32;4.00;;;2.97;;
7211;SDS011;3647;48.792;9.802;2023-07-08T11:02:24;5.05;;;2.75;;
7211;SDS011;3647;48.792;9.802;2023-07-08T11:05:09;4.22;;;2.60;;
7211;SDS011;3647;48.792;9.802;2023-07-08T11:07:44;6.25;;;2.60;;
7211;SDS011;3647;48.792;9.802;2023-07-08T11:10:15;3.78;;;2.58;;
7211;SDS011;3647;48.792;9.802;2023-07-08T11:12:47;4.43;;;2.63;;
7211;SDS011;3647;48.792;9.802;2023-07-08T11:15:19;4.38;;;3.08;;
7211;SDS011;3647;48.792;9.802;2023-07-08T11:17:52;2.97;;;2.30;;
7211;SDS011;3647;48.792;9.802;2023-07-08T11:20:25;2.95;;;2.08;;
7211;SDS011;3647;48.792;9.802;2023-07-08T11:23:03;3.47;;;1.80;;
7211;SDS011;3647;48.792;9.802;2023-07-08T11:25:34;2.90;;;1.85;;
7211;SDS011;3647;48.792;9.802;2023-07-08T11:28:02;4.68;;;1.83;;
7211;SDS011;3647;48.792;9.802;2023-07-08T11:30:31;2.10;;;1.58;;
7211;SDS011;3647;48.792;9.802;2023-07-08T11:33:08;2.83;;;2.00;;
7211;SDS011;3647;48.792;9.802;2023-07-08T11:35:38;1.90;;;1.35;;
7211;SDS011;3647;48.792;9.802;2023-07-08T11:38:09;1.92;;;1.73;;
7211;SDS011;3647;48.792;9.802;2023-07-08T11:40:49;4.63;;;1.55;;
7211;SDS011;3647;48.792;9.802;2023-07-08T11:43:18;1.90;;;1.30;;
7211;SDS011;3647;48.792;9.802;2023-07-08T11:45:46;2.70;;;1.90;;
7211;SDS011;3647;48.792;9.802;2023-07-08T11:48:18;2.53;;;1.85;;
7211;SDS011;3647;48.792;9.802;2023-07-08T11:50:48;1.70;;;1.20;;
7211;SDS011;3647;48.792;9.802;2023-07-08T11:53:31;2.22;;;1.30;;
7211;SDS011;3647;48.792;9.802;2023-07-08T11:56:02;3.47;;;1.35;;
7211;SDS011;3647;48.792;9.802;2023-07-08T11:58:33;2.95;;;1.58;;
7211;SDS011;3647;48.792;9.802;2023-07-08T12:01:20;1.52;;;1.20;;
7211;SDS011;3647;48.792;9.802;2023-07-08T12:03:53;2.67;;;1.73;;
7211;SDS011;3647;48.792;9.802;2023-07-08T12:06:40;2.47;;;1.52;;
7211;SDS011;3647;48.792;9.802;2023-07-08T12:09:13;2.55;;;1.23;;
7211;SDS011;3647;48.792;9.802;2023-07-08T12:11:43;2.97;;;1.48;;
7211;SDS011;3647;48.792;9.802;2023-07-08T12:14:11;1.75;;;1.48;;
7211;SDS011;3647;48.792;9.802;2023-07-08T12:16:39;1.60;;;1.15;;
7211;SDS011;3647;48.792;9.802;2023-07-08T12:19:10;2.05;;;1.52;;
7211;SDS011;3647;48.792;9.802;2023-07-08T12:21:42;2.08;;;1.42;;
7211;SDS011;3647;48.792;9.802;2023-07-08T12:24:09;3.42;;;1.48;;
7211;SDS011;3647;48.792;9.802;2023-07-08T12:26:39;2.30;;;1.27;;
7211;SDS011;3647;48.792;9.802;2023-07-08T12:29:07;1.70;;;1.30;;
7211;SDS011;3647;48.792;9.802;2023-07-08T12:31:36;2.20;;;1.45;;
7211;SDS011;3647;48.792;9.802;2023-07-08T12:34:04;2.40;;;1.35;;
7211;SDS011;3647;48.792;9.802;2023-07-08T12:36:33;1.75;;;1.15;;
7211;SDS011;3647;48.792;9.802;2023-07-08T12:39:00;1.30;;;1.20;;
7211;SDS011;3647;48.792;9.802;2023-07-08T12:41:28;2.85;;;1.20;;
7211;SDS011;3647;48.792;9.802;2023-07-08T12:43:58;1.35;;;1.15;;
7211;SDS011;3647;48.792;9.802;2023-07-08T12:46:25;2.13;;;1.33;;
7211;SDS011;3647;48.792;9.802;2023-07-08T12:48:53;3.80;;;1.77;;
7211;SDS011;3647;48.792;9.802;2023-07-08T12:51:24;2.58;;;1.20;;
7211;SDS011;3647;48.792;9.802;2023-07-08T12:53:54;2.17;;;1.10;;
7211;SDS011;3647;48.792;9.802;2023-07-08T12:56:21;2.97;;;1.40;;
7211;SDS011;3647;48.792;9.802;2023-07-08T12:58:50;1.52;;;1.25;;
7211;SDS011;3647;48.792;9.802;2023-07-08T13:01:19;2.78;;;1.48;;
7211;SDS011;3647;48.792;9.802;2023-07-08T13:03:49;1.10;;;1.00;;
7211;SDS011;3647;48.792;9.802;2023-07-08T13:06:20;1.90;;;1.40;;
7211;SDS011;3647;48.792;9.802;2023-07-08T13:08:48;2.92;;;1.35;;
7211;SDS011;3647;48.792;9.802;2023-07-08T13:11:18;2.72;;;1.35;;
7211;SDS011;3647;48.792;9.802;2023-07-08T13:13:49;2.80;;;1.63;;
7211;SDS011;3647;48.792;9.802;2023-07-08T13:16:30;2.03;;;1.63;;
7211;SDS011;3647;48.792;9.802;2023-07-08T13:18:58;1.10;;;1.00;;
7211;SDS011;3647;48.792;9.802;2023-07-08T13:21:26;3.35;;;1.60;;
7211;SDS011;3647;48.792;9.802;2023-07-08T13:23:55;1.40;;;1.30;;
7211;SDS011;3647;48.792;9.802;2023-07-08T13:26:24;2.25;;;1.40;;
7211;SDS011;3647;48.792;9.802;2023-07-08T13:28:59;1.45;;;1.17;;
7211;SDS011;3647;48.792;9.802;2023-07-08T13:31:31;2.17;;;1.40;;
7211;SDS011;3647;48.792;9.802;2023-07-08T13:34:02;2.38;;;1.83;;
7211;SDS011;3647;48.792;9.802;2023-07-08T13:36:34;2.08;;;1.30;;
7211;SDS011;3647;48.792;9.802;2023-07-08T13:39:04;1.70;;;1.17;;
7211;SDS011;3647;48.792;9.802;2023-07-08T13:41:34;1.80;;;1.10;;
7211;SDS011;3647;48.792;9.802;2023-07-08T13:44:05;1.88;;;1.38;;
7211;SDS011;3647;48.792;9.802;2023-07-08T13:46:34;1.42;;;1.23;;
7211;SDS011;3647;48.792;9.802;2023-07-08T13:49:07;1.73;;;1.27;;
7211;SDS011;3647;48.792;9.802;2023-07-08T13:51:38;2.25;;;1.20;;
7211;SDS011;3647;48.792;9.802;2023-07-08T13:54:12;3.00;;;1.15;;
7211;SDS011;3647;48.792;9.802;2023-07-08T13:56:46;3.45;;;2.15;;
7211;SDS011;3647;48.792;9.802;2023-07-08T13:59:15;2.47;;;1.60;;
7211;SDS011;3647;48.792;9.802;2023-07-08T14:01:44;2.40;;;1.67;;
7211;SDS011;3647;48.792;9.802;2023-07-08T14:04:12;3.53;;;1.20;;
7211;SDS011;3647;48.792;9.802;2023-07-08T14:06:41;1.73;;;1.15;;
7211;SDS011;3647;48.792;9.802;2023-07-08T14:09:11;1.65;;;1.40;;
7211;SDS011;3647;48.792;9.802;2023-07-08T14:11:39;3.40;;;1.17;;
7211;SDS011;3647;48.792;9.802;2023-07-08T14:14:08;1.85;;;1.27;;
7211;SDS011;3647;48.792;9.802;2023-07-08T14:16:36;1.73;;;1.10;;
7211;SDS011;3647;48.792;9.802;2023-07-08T14:19:05;1.67;;;1.00;;
7211;SDS011;3647;48.792;9.802;2023-07-08T14:21:36;1.80;;;1.10;;
7211;SDS011;3647;48.792;9.802;2023-07-08T14:24:08;2.75;;;1.20;;
7211;SDS011;3647;48.792;9.802;2023-07-08T14:26:38;1.67;;;1.35;;
7211;SDS011;3647;48.792;9.802;2023-07-08T14:29:10;1.92;;;1.35;;
7211;SDS011;3647;48.792;9.802;2023-07-08T14:31:38;2.40;;;1.80;;
7211;SDS011;3647;48.792;9.802;2023-07-08T14:34:06;1.30;;;1.15;;
7211;SDS011;3647;48.792;9.802;2023-07-08T14:36:35;1.27;;;1.17;;
7211;SDS011;3647;48.792;9.802;2023-07-08T14:39:08;1.77;;;1.50;;
7211;SDS011;3647;48.792;9.802;2023-07-08T14:41:37;3.38;;;1.40;;
7211;SDS011;3647;48.792;9.802;2023-07-08T14:44:08;4.57;;;2.10;;
7211;SDS011;3647;48.792;9.802;2023-07-08T14:46:46;5.18;;;1.75;;
7211;SDS011;3647;48.792;9.802;2023-07-08T14:49:15;1.70;;;1.55;;
7211;SDS011;3647;48.792;9.802;2023-07-08T14:51:43;2.85;;;1.60;;
7211;SDS011;3647;48.792;9.802;2023-07-08T14:54:10;2.40;;;1.63;;
7211;SDS011;3647;48.792;9.802;2023-07-08T14:56:38;2.10;;;1.50;;
7211;SDS011;3647;48.792;9.802;2023-07-08T14:59:07;1.92;;;1.48;;
7211;SDS011;3647;48.792;9.802;2023-07-08T15:01:45;3.03;;;1.95;;
7211;SDS011;3647;48.792;9.802;2023-07-08T15:04:13;3.03;;;1.67;;
7211;SDS011;3647;48.792;9.802;2023-07-08T15:06:41;2.53;;;1.35;;
7211;SDS011;3647;48.792;9.802;2023-07-08T15:09:09;4.38;;;1.60;;
7211;SDS011;3647;48.792;9.802;2023-07-08T15:11:37;3.10;;;1.88;;
7211;SDS011;3647;48.792;9.802;2023-07-08T15:14:08;2.70;;;1.20;;
7211;SDS011;3647;48.792;9.802;2023-07-08T15:16:46;2.20;;;1.30;;
7211;SDS011;3647;48.792;9.802;2023-07-08T15:19:13;2.38;;;1.33;;
7211;SDS011;3647;48.792;9.802;2023-07-08T15:21:40;2.13;;;1.65;;
7211;SDS011;3647;48.792;9.802;2023-07-08T15:24:08;3.00;;;1.60;;
7211;SDS011;3647;48.792;9.802;2023-07-08T15:26:39;2.97;;;1.58;;
7211;SDS011;3647;48.792;9.802;2023-07-08T15:29:09;1.50;;;1.40;;
7211;SDS011;3647;48.792;9.802;2023-07-08T15:31:43;2.10;;;1.40;;
7211;SDS011;3647;48.792;9.802;2023-07-08T15:34:15;2.47;;;1.63;;
7211;SDS011;3647;48.792;9.802;2023-07-08T15:36:44;3.70;;;1.60;;
7211;SDS011;3647;48.792;9.802;2023-07-08T15:39:12;2.45;;;1.67;;
7211;SDS011;3647;48.792;9.802;2023-07-08T15:41:40;3.40;;;2.17;;
7211;SDS011;3647;48.792;9.802;2023-07-08T15:44:08;2.40;;;1.70;;
7211;SDS011;3647;48.792;9.802;2023-07-08T15:46:36;2.33;;;1.85;;
7211;SDS011;3647;48.792;9.802;2023-07-08T15:49:12;3.30;;;1.38;;
7211;SDS011;3647;48.792;9.802;2023-07-08T15:51:43;2.33;;;1.42;;
7211;SDS011;3647;48.792;9.802;2023-07-08T15:54:10;3.03;;;1.60;;
7211;SDS011;3647;48.792;9.802;2023-07-08T15:56:39;2.35;;;1.40;;
7211;SDS011;3647;48.792;9.802;2023-07-08T15:59:11;3.33;;;2.50;;
7211;SDS011;3647;48.792;9.802;2023-07-08T16:01:42;2.70;;;1.80;;
7211;SDS011;3647;48.792;9.802;2023-07-08T16:04:13;3.08;;;1.63;;
7211;SDS011;3647;48.792;9.802;2023-07-08T16:06:51;2.67;;;1.50;;
7211;SDS011;3647;48.792;9.802;2023-07-08T16:09:24;2.40;;;1.90;;
7211;SDS011;3647;48.792;9.802;2023-07-08T16:11:52;3.70;;;2.05;;
7211;SDS011;3647;48.792;9.802;2023-07-08T16:14:19;2.72;;;1.60;;
7211;SDS011;3647;48.792;9.802;2023-07-08T16:16:46;4.35;;;2.20;;
7211;SDS011;3647;48.792;9.802;2023-07-08T16:19:15;3.28;;;1.73;;
7211;SDS011;3647;48.792;9.802;2023-07-08T16:21:46;2.45;;;1.70;;
7211;SDS011;3647;48.792;9.802;2023-07-08T16:24:14;3.40;;;1.85;;
7211;SDS011;3647;48.792;9.802;2023-07-08T16:26:41;4.45;;;1.67;;
7211;SDS011;3647;48.792;9.802;2023-07-08T16:29:09;3.42;;;1.80;;
7211;SDS011;3647;48.792;9.802;2023-07-08T16:31:41;3.75;;;1.80;;
7211;SDS011;3647;48.792;9.802;2023-07-08T16:34:08;3.28;;;2.00;;
7211;SDS011;3647;48.792;9.802;2023-07-08T16:36:36;3.60;;;1.80;;
7211;SDS011;3647;48.792;9.802;2023-07-08T16:39:07;3.15;;;1.60;;
7211;SDS011;3647;48.792;9.802;2023-07-08T16:41:34;2.67;;;1.90;;
7211;SDS011;3647;48.792;9.802;2023-07-08T16:44:02;7.25;;;4.70;;
7211;SDS011;3647;48.792;9.802;2023-07-08T16:46:29;2.80;;;2.08;;
7211;SDS011;3647;48.792;9.802;2023-07-08T16:48:56;8.90;;;5.15;;
7211;SDS011;3647;48.792;9.802;2023-07-08T16:51:24;4.40;;;3.28;;
7211;SDS011;3647;48.792;9.802;2023-07-08T16:53:56;2.38;;;1.90;;
7211;SDS011;3647;48.792;9.802;2023-07-08T16:56:28;4.38;;;2.35;;
7211;SDS011;3647;48.792;9.802;2023-07-08T16:58:56;2.00;;;1.55;;
7211;SDS011;3647;48.792;9.802;2023-07-08T17:01:23;2.80;;;1.60;;
7211;SDS011;3647;48.792;9.802;2023-07-08T17:03:53;2.60;;;2.05;;
7211;SDS011;3647;48.792;9.802;2023-07-08T17:06:22;3.08;;;1.90;;
7211;SDS011;3647;48.792;9.802;2023-07-08T17:08:49;3.22;;;1.63;;
7211;SDS011;3647;48.792;9.802;2023-07-08T17:11:16;2.08;;;1.45;;
7211;SDS011;3647;48.792;9.802;2023-07-08T17:13:44;3.38;;;1.90;;
7211;SDS011;3647;48.792;9.802;2023-07-08T17:16:13;3.42;;;2.03;;
7211;SDS011;3647;48.792;9.802;2023-07-08T17:18:42;4.95;;;2.22;;
7211;SDS011;3647;48.792;9.802;2023-07-08T17:21:12;2.60;;;1.90;;
7211;SDS011;3647;48.792;9.802;2023-07-08T17:23:40;4.53;;;2.05;;
7211;SDS011;3647;48.792;9.802;2023-07-08T17:26:07;3.80;;;2.10;;
7211;SDS011;3647;48.792;9.802;2023-07-08T17:28:34;4.15;;;2.10;;
7211;SDS011;3647;48.792;9.802;2023-07-08T17:31:02;3.28;;;1.95;;
7211;SDS011;3647;48.792;9.802;2023-07-08T17:33:30;2.85;;;2.42;;
7211;SDS011;3647;48.792;9.802;2023-07-08T17:35:57;5.05;;;2.00;;
7211;SDS011;3647;48.792;9.802;2023-07-08T17:38:38;3.95;;;1.88;;
7211;SDS011;3647;48.792;9.802;2023-07-08T17:41:11;1.92;;;1.60;;
7211;SDS011;3647;48.792;9.802;2023-07-08T17:43:40;2.65;;;1.83;;
7211;SDS011;3647;48.792;9.802;2023-07-08T17:46:09;2.10;;;1.60;;
7211;SDS011;3647;48.792;9.802;2023-07-08T17:48:37;2.03;;;1.80;;
7211;SDS011;3647;48.792;9.802;2023-07-08T17:51:11;2.10;;;1.70;;
7211;SDS011;3647;48.792;9.802;2023-07-08T17:53:39;2.75;;;1.77;;
7211;SDS011;3647;48.792;9.802;2023-07-08T17:56:07;3.65;;;2.03;;
7211;SDS011;3647;48.792;9.802;2023-07-08T17:58:44;2.58;;;1.63;;
7211;SDS011;3647;48.792;9.802;2023-07-08T18:01:12;2.03;;;1.50;;
7211;SDS011;3647;48.792;9.802;2023-07-08T18:03:39;2.17;;;1.45;;
7211;SDS011;3647;48.792;9.802;2023-07-08T18:06:06;3.10;;;1.88;;
7211;SDS011;3647;48.792;9.802;2023-07-08T18:08:33;1.77;;;1.50;;
7211;SDS011;3647;48.792;9.802;2023-07-08T18:10:59;1.80;;;1.45;;
7211;SDS011;3647;48.792;9.802;2023-07-08T18:13:26;4.38;;;1.42;;
7211;SDS011;3647;48.792;9.802;2023-07-08T18:15:59;2.20;;;1.30;;
7211;SDS011;3647;48.792;9.802;2023-07-08T18:18:27;3.08;;;1.50;;
7211;SDS011;3647;48.792;9.802;2023-07-08T18:20:54;2.17;;;1.95;;
7211;SDS011;3647;48.792;9.802;2023-07-08T18:23:21;2.58;;;1.38;;
7211;SDS011;3647;48.792;9.802;2023-07-08T18:25:49;1.27;;;1.13;;
7211;SDS011;3647;48.792;9.802;2023-07-08T18:28:16;2.35;;;1.48;;
7211;SDS011;3647;48.792;9.802;2023-07-08T18:30:43;2.13;;;1.20;;
7211;SDS011;3647;48.792;9.802;2023-07-08T18:33:12;2.33;;;1.45;;
7211;SDS011;3647;48.792;9.802;2023-07-08T18:35:41;2.03;;;1.25;;
7211;SDS011;3647;48.792;9.802;2023-07-08T18:38:10;1.70;;;1.20;;
7211;SDS011;3647;48.792;9.802;2023-07-08T18:40:38;2.03;;;1.23;;
7211;SDS011;3647;48.792;9.802;2023-07-08T18:46:28;1.33;;;1.13;;
7211;SDS011;3647;48.792;9.802;2023-07-08T18:48:55;1.83;;;1.20;;
7211;SDS011;3647;48.792;9.802;2023-07-08T18:51:41;2.97;;;1.48;;
7211;SDS011;3647;48.792;9.802;2023-07-08T18:54:12;1.60;;;1.50;;
7211;SDS011;3647;48.792;9.802;2023-07-08T18:56:40;1.75;;;1.45;;
7211;SDS011;3647;48.792;9.802;2023-07-08T18:59:07;3.42;;;1.73;;
7211;SDS011;3647;48.792;9.802;2023-07-08T19:01:34;4.25;;;2.47;;
7211;SDS011;3647;48.792;9.802;2023-07-08T19:04:04;2.92;;;2.28;;
7211;SDS011;3647;48.792;9.802;2023-07-08T19:06:32;3.03;;;2.10;;
7211;SDS011;3647;48.792;9.802;2023-07-08T19:08:59;3.10;;;1.75;;
7211;SDS011;3647;48.792;9.802;2023-07-08T19:11:26;3.80;;;2.38;;
7211;SDS011;3647;48.792;9.802;2023-07-08T19:13:54;3.00;;;2.33;;
7211;SDS011;3647;48.792;9.802;2023-07-08T19:16:21;2.80;;;1.73;;
7211;SDS011;3647;48.792;9.802;2023-07-08T19:18:48;2.88;;;2.00;;
7211;SDS011;3647;48.792;9.802;2023-07-08T19:21:16;2.33;;;1.50;;
7211;SDS011;3647;48.792;9.802;2023-07-08T19:23:48;3.10;;;2.05;;
7211;SDS011;3647;48.792;9.802;2023-07-08T19:26:18;4.15;;;1.80;;
7211;SDS011;3647;48.792;9.802;2023-07-08T19:28:47;2.55;;;1.80;;
7211;SDS011;3647;48.792;9.802;2023-07-08T19:31:16;2.38;;;1.73;;
7211;SDS011;3647;48.792;9.802;2023-07-08T19:33:46;2.67;;;2.08;;
7211;SDS011;3647;48.792;9.802;2023-07-08T19:36:13;2.83;;;2.03;;
7211;SDS011;3647;48.792;9.802;2023-07-08T19:38:41;4.47;;;2.28;;
7211;SDS011;3647;48.792;9.802;2023-07-08T19:41:10;3.25;;;2.15;;
7211;SDS011;3647;48.792;9.802;2023-07-08T19:43:37;3.35;;;1.95;;
7211;SDS011;3647;48.792;9.802;2023-07-08T19:46:05;4.15;;;2.35;;
7211;SDS011;3647;48.792;9.802;2023-07-08T19:48:34;2.22;;;1.88;;
7211;SDS011;3647;48.792;9.802;2023-07-08T19:51:01;2.78;;;1.90;;
7211;SDS011;3647;48.792;9.802;2023-07-08T19:53:28;5.15;;;3.85;;
7211;SDS011;3647;48.792;9.802;2023-07-08T19:55:55;2.47;;;2.10;;
7211;SDS011;3647;48.792;9.802;2023-07-08T19:58:24;3.08;;;1.63;;
7211;SDS011;3647;48.792;9.802;2023-07-08T20:00:50;1.95;;;1.73;;
7211;SDS011;3647;48.792;9.802;2023-07-08T20:03:17;1.85;;;1.35;;
7211;SDS011;3647;48.792;9.802;2023-07-08T20:05:44;2.53;;;1.85;;
7211;SDS011;3647;48.792;9.802;2023-07-08T20:08:19;3.17;;;2.63;;
7211;SDS011;3647;48.792;9.802;2023-07-08T20:10:53;3.28;;;2.00;;
7211;SDS011;3647;48.792;9.802;2023-07-08T20:13:21;4.15;;;1.80;;
7211;SDS011;3647;48.792;9.802;2023-07-08T20:15:49;2.75;;;1.63;;
7211;SDS011;3647;48.792;9.802;2023-07-08T20:18:17;3.03;;;2.00;;
7211;SDS011;3647;48.792;9.802;2023-07-08T20:20:50;4.05;;;1.67;;
7211;SDS011;3647;48.792;9.802;2023-07-08T20:23:22;1.90;;;1.38;;
7211;SDS011;3647;48.792;9.802;2023-07-08T20:25:49;3.35;;;1.80;;
7211;SDS011;3647;48.792;9.802;2023-07-08T20:28:16;3.45;;;1.80;;
7211;SDS011;3647;48.792;9.802;2023-07-08T20:30:43;2.88;;;1.52;;
7211;SDS011;3647;48.792;9.802;2023-07-08T20:33:12;2.33;;;1.77;;
7211;SDS011;3647;48.792;9.802;2023-07-08T20:35:39;2.70;;;1.67;;
7211;SDS011;3647;48.792;9.802;2023-07-08T20:38:08;2.60;;;1.77;;
7211;SDS011;3647;48.792;9.802;2023-07-08T20:40:36;1.63;;;1.40;;
7211;SDS011;3647;48.792;9.802;2023-07-08T20:43:07;2.30;;;1.80;;
7211;SDS011;3647;48.792;9.802;2023-07-08T20:45:37;2.70;;;2.00;;
7211;SDS011;3647;48.792;9.802;2023-07-08T20:48:07;2.30;;;1.98;;
7211;SDS011;3647;48.792;9.802;2023-07-08T20:50:42;2.58;;;1.70;;
7211;SDS011;3647;48.792;9.802;2023-07-08T20:53:10;2.72;;;2.05;;
7211;SDS011;3647;48.792;9.802;2023-07-08T20:55:38;3.60;;;2.13;;
7211;SDS011;3647;48.792;9.802;2023-07-08T20:58:09;4.95;;;2.45;;
7211;SDS011;3647;48.792;9.802;2023-07-08T21:00:37;2.95;;;1.90;;
7211;SDS011;3647;48.792;9.802;2023-07-08T21:03:06;2.63;;;2.13;;
7211;SDS011;3647;48.792;9.802;2023-07-08T21:05:36;4.32;;;2.83;;
7211;SDS011;3647;48.792;9.802;2023-07-08T21:08:04;3.85;;;2.40;;
7211;SDS011;3647;48.792;9.802;2023-07-08T21:10:43;3.00;;;2.53;;
7211;SDS011;3647;48.792;9.802;2023-07-08T21:13:09;3.67;;;2.60;;
7211;SDS011;3647;48.792;9.802;2023-07-08T21:15:36;4.50;;;2.47;;
7211;SDS011;3647;48.792;9.802;2023-07-08T21:18:04;3.53;;;2.67;;
7211;SDS011;3647;48.792;9.802;2023-07-08T21:20:36;4.13;;;2.90;;
7211;SDS011;3647;48.792;9.802;2023-07-08T21:23:05;4.13;;;2.88;;
7211;SDS011;3647;48.792;9.802;2023-07-08T21:25:32;3.75;;;2.65;;
7211;SDS011;3647;48.792;9.802;2023-07-08T21:27:59;3.25;;;2.20;;
7211;SDS011;3647;48.792;9.802;2023-07-08T21:30:26;4.53;;;3.88;;
7211;SDS011;3647;48.792;9.802;2023-07-08T21:32:53;2.80;;;2.38;;
7211;SDS011;3647;48.792;9.802;2023-07-08T21:35:21;3.10;;;2.40;;
7211;SDS011;3647;48.792;9.802;2023-07-08T21:37:51;3.42;;;2.80;;
7211;SDS011;3647;48.792;9.802;2023-07-08T21:40:24;5.13;;;2.83;;
7211;SDS011;3647;48.792;9.802;2023-07-08T21:42:56;3.35;;;2.72;;
7211;SDS011;3647;48.792;9.802;2023-07-08T21:45:24;4.57;;;2.90;;
7211;SDS011;3647;48.792;9.802;2023-07-08T21:47:52;4.22;;;2.92;;
7211;SDS011;3647;48.792;9.802;2023-07-08T21:50:19;4.50;;;3.30;;
7211;SDS011;3647;48.792;9.802;2023-07-08T21:52:46;5.85;;;2.78;;
7211;SDS011;3647;48.792;9.802;2023-07-08T21:55:15;2.80;;;2.45;;
